sensor_id;sensor_type;location;lat;lon;timestamp;P1;durP1;ratioP1;P2;durP2;ratioP2
26914;SDS011;14480;52.608;13.416;2023-09-19T10:08:17;9.25;;;3.03;;
26914;SDS011;14480;52.608;13.416;2023-09-19T10:13:21;8.45;;;3.33;;
26914;SDS011;14480;52.608;13.416;2023-09-19T10:18:29;9.82;;;3.38;;
26914;SDS011;14480;52.608;13.416;2023-09-19T10:23:40;8.45;;;3.03;;
26914;SDS011;14480;52.608;13.416;2023-09-19T10:28:47;10.90;;;3.42;;
26914;SDS011;14480;52.608;13.416;2023-09-19T10:34:02;10.90;;;3.38;;
26914;SDS011;14480;52.608;13.416;2023-09-19T10:39:09;16.00;;;3.95;;
26914;SDS011;14480;52.608;13.416;2023-09-19T10:44:17;8.75;;;3.42;;
26914;SDS011;14480;52.608;13.416;2023-09-19T10:49:25;9.25;;;2.85;;
26914;SDS011;14480;52.608;13.416;2023-09-19T10:54:31;9.13;;;3.03;;
26914;SDS011;14480;52.608;13.416;2023-09-19T10:59:39;12.35;;;3.60;;
26914;SDS011;14480;52.608;13.416;2023-09-19T11:05:26;13.77;;;3.50;;
26914;SDS011;14480;52.608;13.416;2023-09-19T11:10:47;13.30;;;3.63;;
26914;SDS011;14480;52.608;13.416;2023-09-19T11:16:03;6.38;;;2.60;;
26914;SDS011;14480;52.608;13.416;2023-09-19T11:26:46;12.40;;;3.40;;
26914;SDS011;14480;52.608;13.416;2023-09-19T11:31:50;9.98;;;3.05;;
26914;SDS011;14480;52.608;13.416;2023-09-19T11:37:02;10.98;;;2.92;;
26914;SDS011;14480;52.608;13.416;2023-09-19T11:47:46;13.38;;;3.10;;
26914;SDS011;14480;52.608;13.416;2023-09-19T11:52:51;10.48;;;2.80;;
26914;SDS011;14480;52.608;13.416;2023-09-19T11:57:57;11.13;;;2.58;;
26914;SDS011;14480;52.608;13.416;2023-09-19T12:03:07;7.60;;;2.40;;
26914;SDS011;14480;52.608;13.416;2023-09-19T12:08:14;9.85;;;2.45;;
26914;SDS011;14480;52.608;13.416;2023-09-19T12:13:19;9.95;;;2.30;;
26914;SDS011;14480;52.608;13.416;2023-09-19T12:18:29;11.15;;;2.70;;
26914;SDS011;14480;52.608;13.416;2023-09-19T12:23:33;7.10;;;2.17;;
26914;SDS011;14480;52.608;13.416;2023-09-19T12:28:40;10.38;;;2.45;;
26914;SDS011;14480;52.608;13.416;2023-09-19T12:33:54;13.65;;;2.38;;
26914;SDS011;14480;52.608;13.416;2023-09-19T12:38:58;11.02;;;2.30;;
26914;SDS011;14480;52.608;13.416;2023-09-19T12:44:01;11.07;;;2.42;;
26914;SDS011;14480;52.608;13.416;2023-09-19T12:49:18;5.63;;;2.30;;
26914;SDS011;14480;52.608;13.416;2023-09-19T12:54:22;6.95;;;2.20;;
26914;SDS011;14480;52.608;13.416;2023-09-19T12:59:29;5.35;;;1.90;;
26914;SDS011;14480;52.608;13.416;2023-09-19T13:04:36;5.20;;;1.88;;
26914;SDS011;14480;52.608;13.416;2023-09-19T13:10:01;8.32;;;1.92;;
26914;SDS011;14480;52.608;13.416;2023-09-19T13:15:07;10.65;;;2.08;;
26914;SDS011;14480;52.608;13.416;2023-09-19T13:20:23;6.90;;;2.10;;
26914;SDS011;14480;52.608;13.416;2023-09-19T13:25:29;5.82;;;1.95;;
26914;SDS011;14480;52.608;13.416;2023-09-19T13:30:37;8.55;;;2.45;;
26914;SDS011;14480;52.608;13.416;2023-09-19T13:35:46;8.98;;;2.25;;
26914;SDS011;14480;52.608;13.416;2023-09-19T13:40:52;8.27;;;2.30;;
26914;SDS011;14480;52.608;13.416;2023-09-19T13:45:59;7.45;;;2.30;;
26914;SDS011;14480;52.608;13.416;2023-09-19T13:51:05;9.23;;;2.13;;
26914;SDS011;14480;52.608;13.416;2023-09-19T13:56:08;8.07;;;2.20;;
26914;SDS011;14480;52.608;13.416;2023-09-19T14:01:13;6.60;;;2.13;;
26914;SDS011;14480;52.608;13.416;2023-09-19T14:06:18;6.18;;;1.80;;
26914;SDS011;14480;52.608;13.416;2023-09-19T14:11:22;6.65;;;2.20;;
26914;SDS011;14480;52.608;13.416;2023-09-19T14:16:26;5.20;;;2.20;;
26914;SDS011;14480;52.608;13.416;2023-09-19T14:21:34;5.50;;;1.88;;
26914;SDS011;14480;52.608;13.416;2023-09-19T14:26:38;5.40;;;1.80;;
26914;SDS011;14480;52.608;13.416;2023-09-19T14:31:42;7.53;;;2.83;;
26914;SDS011;14480;52.608;13.416;2023-09-19T14:36:48;8.18;;;2.10;;
26914;SDS011;14480;52.608;13.416;2023-09-19T14:41:54;7.55;;;2.28;;
26914;SDS011;14480;52.608;13.416;2023-09-19T14:46:58;11.20;;;2.95;;
26914;SDS011;14480;52.608;13.416;2023-09-19T14:52:03;9.57;;;2.50;;
26914;SDS011;14480;52.608;13.416;2023-09-19T14:57:12;5.82;;;2.10;;
26914;SDS011;14480;52.608;13.416;2023-09-19T15:02:17;8.07;;;2.30;;
26914;SDS011;14480;52.608;13.416;2023-09-19T15:07:23;6.13;;;1.95;;
26914;SDS011;14480;52.608;13.416;2023-09-19T15:12:38;8.38;;;2.10;;
26914;SDS011;14480;52.608;13.416;2023-09-19T15:23:46;8.75;;;2.42;;
26914;SDS011;14480;52.608;13.416;2023-09-19T15:28:52;8.73;;;2.13;;
26914;SDS011;14480;52.608;13.416;2023-09-19T15:33:57;6.82;;;1.80;;
26914;SDS011;14480;52.608;13.416;2023-09-19T15:39:05;7.03;;;2.35;;
26914;SDS011;14480;52.608;13.416;2023-09-19T15:44:13;5.60;;;2.20;;
26914;SDS011;14480;52.608;13.416;2023-09-19T15:49:19;11.63;;;2.45;;
26914;SDS011;14480;52.608;13.416;2023-09-19T15:54:24;6.43;;;1.85;;
26914;SDS011;14480;52.608;13.416;2023-09-19T15:59:29;8.02;;;2.60;;
26914;SDS011;14480;52.608;13.416;2023-09-19T16:04:33;10.67;;;2.50;;
26914;SDS011;14480;52.608;13.416;2023-09-19T16:09:39;7.75;;;3.00;;
26914;SDS011;14480;52.608;13.416;2023-09-19T16:14:42;8.77;;;3.45;;
26914;SDS011;14480;52.608;13.416;2023-09-19T16:19:46;10.95;;;2.92;;
26914;SDS011;14480;52.608;13.416;2023-09-19T16:24:51;7.93;;;2.90;;
26914;SDS011;14480;52.608;13.416;2023-09-19T16:29:56;8.95;;;2.97;;
26914;SDS011;14480;52.608;13.416;2023-09-19T16:35:00;8.77;;;3.00;;
26914;SDS011;14480;52.608;13.416;2023-09-19T16:45:27;10.93;;;3.92;;
26914;SDS011;14480;52.608;13.416;2023-09-19T16:50:34;13.07;;;3.65;;
26914;SDS011;14480;52.608;13.416;2023-09-19T16:55:41;7.68;;;3.17;;
26914;SDS011;14480;52.608;13.416;2023-09-19T17:00:45;11.93;;;3.30;;
26914;SDS011;14480;52.608;13.416;2023-09-19T17:05:50;11.30;;;3.50;;
26914;SDS011;14480;52.608;13.416;2023-09-19T17:11:02;9.63;;;3.50;;
26914;SDS011;14480;52.608;13.416;2023-09-19T17:16:08;9.55;;;3.58;;
26914;SDS011;14480;52.608;13.416;2023-09-19T17:21:15;11.25;;;3.90;;
26914;SDS011;14480;52.608;13.416;2023-09-19T17:26:21;9.65;;;3.03;;
26914;SDS011;14480;52.608;13.416;2023-09-19T17:31:27;13.23;;;5.35;;
26914;SDS011;14480;52.608;13.416;2023-09-19T17:36:32;9.57;;;4.60;;
26914;SDS011;14480;52.608;13.416;2023-09-19T17:41:39;11.23;;;3.50;;
26914;SDS011;14480;52.608;13.416;2023-09-19T17:46:43;11.15;;;3.53;;
26914;SDS011;14480;52.608;13.416;2023-09-19T17:51:49;7.40;;;3.20;;
26914;SDS011;14480;52.608;13.416;2023-09-19T17:56:54;10.13;;;3.95;;
26914;SDS011;14480;52.608;13.416;2023-09-19T18:01:58;12.10;;;3.45;;
26914;SDS011;14480;52.608;13.416;2023-09-19T18:07:02;10.90;;;3.72;;
26914;SDS011;14480;52.608;13.416;2023-09-19T18:12:09;11.23;;;3.90;;
26914;SDS011;14480;52.608;13.416;2023-09-19T18:17:14;11.98;;;3.28;;
26914;SDS011;14480;52.608;13.416;2023-09-19T18:22:18;10.10;;;3.67;;
26914;SDS011;14480;52.608;13.416;2023-09-19T18:27:23;15.55;;;5.50;;
26914;SDS011;14480;52.608;13.416;2023-09-19T18:32:26;7.90;;;3.80;;
26914;SDS011;14480;52.608;13.416;2023-09-19T18:37:31;14.35;;;3.70;;
26914;SDS011;14480;52.608;13.416;2023-09-19T18:42:38;8.95;;;3.85;;
26914;SDS011;14480;52.608;13.416;2023-09-19T18:47:43;8.18;;;3.35;;
26914;SDS011;14480;52.608;13.416;2023-09-19T18:57:55;7.60;;;3.10;;
26914;SDS011;14480;52.608;13.416;2023-09-19T19:02:59;13.00;;;3.13;;
26914;SDS011;14480;52.608;13.416;2023-09-19T19:08:03;7.38;;;2.63;;
26914;SDS011;14480;52.608;13.416;2023-09-19T19:13:09;8.50;;;3.05;;
26914;SDS011;14480;52.608;13.416;2023-09-19T19:18:15;8.13;;;3.17;;
26914;SDS011;14480;52.608;13.416;2023-09-19T19:23:19;6.18;;;2.65;;
26914;SDS011;14480;52.608;13.416;2023-09-19T19:28:25;8.48;;;4.10;;
26914;SDS011;14480;52.608;13.416;2023-09-19T19:33:29;6.75;;;2.63;;
26914;SDS011;14480;52.608;13.416;2023-09-19T19:38:33;10.65;;;3.22;;
26914;SDS011;14480;52.608;13.416;2023-09-19T19:43:38;8.02;;;2.83;;
26914;SDS011;14480;52.608;13.416;2023-09-19T19:48:49;7.57;;;2.67;;
26914;SDS011;14480;52.608;13.416;2023-09-19T19:53:54;7.70;;;2.75;;
26914;SDS011;14480;52.608;13.416;2023-09-19T19:59:02;9.02;;;2.80;;
26914;SDS011;14480;52.608;13.416;2023-09-19T20:04:09;12.27;;;3.08;;
26914;SDS011;14480;52.608;13.416;2023-09-19T20:09:15;7.68;;;3.15;;
26914;SDS011;14480;52.608;13.416;2023-09-19T20:14:22;7.20;;;3.03;;
26914;SDS011;14480;52.608;13.416;2023-09-19T20:19:26;12.13;;;2.75;;
26914;SDS011;14480;52.608;13.416;2023-09-19T20:24:35;7.53;;;2.90;;
26914;SDS011;14480;52.608;13.416;2023-09-19T20:29:40;6.95;;;3.25;;
26914;SDS011;14480;52.608;13.416;2023-09-19T20:34:44;7.65;;;3.03;;
26914;SDS011;14480;52.608;13.416;2023-09-19T20:39:48;12.90;;;3.60;;
26914;SDS011;14480;52.608;13.416;2023-09-19T20:44:56;8.20;;;2.88;;
26914;SDS011;14480;52.608;13.416;2023-09-19T20:50:03;6.13;;;2.63;;
26914;SDS011;14480;52.608;13.416;2023-09-19T21:00:14;8.73;;;2.78;;
26914;SDS011;14480;52.608;13.416;2023-09-19T21:05:18;8.40;;;2.80;;
26914;SDS011;14480;52.608;13.416;2023-09-19T21:10:23;8.43;;;2.67;;
26914;SDS011;14480;52.608;13.416;2023-09-19T21:15:29;10.97;;;3.10;;
